createdAt,value
2018-12-06T00:01:43.900Z,7.65
2018-12-06T00:04:12.307Z,8.68
2018-12-06T00:06:40.544Z,8.05
2018-12-06T00:09:08.855Z,7.97
2018-12-06T00:11:37.488Z,6.83
2018-12-06T00:14:05.814Z,7.72
2018-12-06T00:16:34.035Z,7.92
2018-12-06T00:19:08.718Z,8.35
2018-12-06T00:21:36.998Z,7.83
2018-12-06T00:24:05.302Z,7.65
2018-12-06T00:26:33.590Z,7.37
2018-12-06T00:29:01.854Z,8.40
2018-12-06T00:31:29.983Z,7.87
2018-12-06T00:33:58.342Z,8.50
2018-12-06T00:36:26.567Z,8.43
2018-12-06T00:38:54.758Z,7.75
2018-12-06T00:41:23.103Z,7.87
2018-12-06T00:43:51.249Z,8.75
2018-12-06T00:46:19.545Z,8.48
2018-12-06T00:48:47.710Z,8.28
2018-12-06T00:51:15.898Z,7.65
2018-12-06T00:53:44.053Z,7.97
2018-12-06T00:56:12.342Z,8.28
2018-12-06T00:58:40.541Z,8.00
2018-12-06T01:01:08.881Z,7.87
2018-12-06T01:03:37.940Z,9.03
2018-12-06T01:06:06.222Z,8.83
2018-12-06T01:08:34.513Z,9.05
2018-12-06T01:11:02.818Z,8.38
2018-12-06T01:13:31.078Z,8.83
2018-12-06T01:15:59.224Z,8.98
2018-12-06T01:18:27.388Z,7.22
2018-12-06T01:20:55.657Z,8.00
2018-12-06T01:23:24.197Z,7.60
2018-12-06T01:25:52.438Z,7.10
2018-12-06T01:28:20.647Z,7.05
2018-12-06T01:30:48.879Z,7.62
2018-12-06T01:33:17.000Z,7.35
2018-12-06T01:35:45.225Z,8.75
2018-12-06T01:38:13.454Z,7.78
2018-12-06T01:40:41.707Z,7.78
2018-12-06T01:43:09.902Z,7.90
2018-12-06T01:45:38.245Z,8.53
2018-12-06T01:48:06.564Z,6.85
2018-12-06T01:50:34.731Z,8.43
2018-12-06T01:53:02.997Z,7.58
2018-12-06T01:55:31.175Z,7.45
2018-12-06T01:57:59.453Z,6.33
2018-12-06T02:00:27.802Z,8.10
2018-12-06T02:02:56.043Z,8.18
2018-12-06T02:05:24.351Z,7.12
2018-12-06T02:07:52.567Z,8.08
2018-12-06T02:10:20.841Z,7.25
2018-12-06T02:12:49.090Z,8.40
2018-12-06T02:15:17.269Z,8.18
2018-12-06T02:17:45.401Z,8.50
2018-12-06T02:20:13.791Z,8.73
2018-12-06T02:22:42.011Z,6.67
2018-12-06T02:25:10.321Z,8.50
2018-12-06T02:27:38.439Z,8.40
2018-12-06T02:30:06.667Z,8.95
2018-12-06T02:32:34.916Z,7.62
2018-12-06T02:35:03.181Z,7.80
2018-12-06T02:37:31.510Z,7.85
2018-12-06T02:39:59.732Z,8.78
2018-12-06T02:42:27.895Z,9.20
2018-12-06T02:44:56.078Z,8.58
2018-12-06T02:47:24.244Z,8.33
2018-12-06T02:49:52.579Z,9.25
2018-12-06T02:52:20.955Z,8.60
2018-12-06T02:54:49.171Z,8.35
2018-12-06T02:57:17.318Z,9.13
2018-12-06T02:59:45.447Z,8.93
2018-12-06T03:02:13.591Z,9.35
2018-12-06T03:04:41.874Z,9.05
2018-12-06T03:07:10.003Z,9.08
2018-12-06T03:09:38.291Z,9.50
2018-12-06T03:12:06.486Z,9.58
2018-12-06T03:14:34.665Z,9.80
2018-12-06T03:17:03.050Z,11.28
2018-12-06T03:19:31.162Z,8.85
2018-12-06T03:21:59.430Z,8.53
2018-12-06T03:24:27.791Z,11.18
2018-12-06T03:26:55.959Z,9.63
2018-12-06T03:29:24.218Z,10.18
2018-12-06T03:31:52.391Z,11.25
2018-12-06T03:34:20.611Z,11.60
2018-12-06T03:36:48.750Z,9.28
2018-12-06T03:39:16.964Z,8.53
2018-12-06T03:41:45.288Z,10.43
2018-12-06T03:44:13.535Z,9.63
2018-12-06T03:46:41.691Z,9.43
2018-12-06T03:49:09.823Z,10.38
2018-12-06T03:51:38.059Z,11.25
2018-12-06T03:54:06.267Z,9.83
2018-12-06T03:56:34.427Z,9.93
2018-12-06T03:59:02.625Z,9.00
2018-12-06T04:01:30.799Z,8.65
2018-12-06T04:03:59.011Z,9.58
2018-12-06T04:06:27.298Z,12.73
2018-12-06T04:08:55.590Z,9.43
2018-12-06T04:11:23.802Z,9.23
2018-12-06T04:13:51.955Z,11.78
2018-12-06T04:16:20.219Z,11.25
2018-12-06T04:18:48.376Z,10.78
2018-12-06T04:21:16.520Z,12.23
2018-12-06T04:23:44.670Z,12.78
2018-12-06T04:26:12.904Z,11.95
2018-12-06T04:28:41.132Z,10.50
2018-12-06T04:31:09.482Z,10.43
2018-12-06T04:33:37.667Z,11.20
2018-12-06T04:36:05.838Z,12.65
2018-12-06T04:38:34.143Z,11.25
2018-12-06T04:41:02.339Z,11.30
2018-12-06T04:43:30.800Z,10.70
2018-12-06T04:45:58.979Z,10.68
2018-12-06T04:48:27.125Z,11.08
2018-12-06T04:50:55.380Z,11.50
2018-12-06T04:53:23.547Z,11.97
2018-12-06T04:55:51.768Z,12.85
2018-12-06T04:58:19.976Z,11.57
2018-12-06T05:00:48.165Z,11.83
2018-12-06T05:03:16.306Z,14.07
2018-12-06T05:05:44.459Z,13.40
2018-12-06T05:08:12.703Z,12.82
2018-12-06T05:10:41.091Z,13.08
2018-12-06T05:13:09.246Z,12.20
2018-12-06T05:15:37.588Z,11.95
2018-12-06T05:18:05.749Z,12.58
2018-12-06T05:20:33.878Z,13.30
2018-12-06T05:23:02.144Z,12.43
2018-12-06T05:25:30.302Z,13.10
2018-12-06T05:27:58.571Z,11.70
2018-12-06T05:30:26.698Z,12.95
2018-12-06T05:32:54.866Z,12.05
2018-12-06T05:35:23.014Z,12.85
2018-12-06T05:37:51.186Z,14.68
2018-12-06T05:40:19.334Z,12.63
2018-12-06T05:42:47.753Z,12.05
2018-12-06T05:45:16.020Z,13.78
2018-12-06T05:47:44.296Z,13.75
2018-12-06T05:50:12.462Z,13.22
2018-12-06T05:52:40.643Z,14.07
2018-12-06T05:55:08.818Z,14.30
2018-12-06T05:57:36.983Z,13.83
2018-12-06T06:00:06.539Z,14.30
2018-12-06T06:02:41.356Z,13.83
2018-12-06T06:05:09.967Z,12.30
2018-12-06T06:07:38.130Z,12.47
2018-12-06T06:10:06.419Z,12.70
2018-12-06T06:12:34.658Z,12.63
2018-12-06T06:15:02.899Z,13.35
2018-12-06T06:17:31.153Z,12.80
2018-12-06T06:19:59.317Z,14.50
2018-12-06T06:22:27.450Z,12.85
2018-12-06T06:24:55.586Z,13.18
2018-12-06T06:27:23.792Z,13.80
2018-12-06T06:29:51.952Z,13.62
2018-12-06T06:32:20.178Z,14.40
2018-12-06T06:34:48.331Z,13.50
2018-12-06T06:37:16.505Z,13.43
2018-12-06T06:39:44.726Z,13.40
2018-12-06T06:42:12.944Z,13.40
2018-12-06T06:44:41.098Z,14.58
2018-12-06T06:47:09.225Z,12.85
2018-12-06T06:49:37.454Z,14.95
2018-12-06T06:52:11.921Z,15.53
2018-12-06T06:54:46.596Z,13.50
2018-12-06T06:57:21.126Z,14.70
2018-12-06T06:59:52.825Z,13.83
2018-12-06T07:02:29.358Z,13.93
2018-12-06T07:05:03.254Z,13.10
2018-12-06T07:07:35.397Z,14.23
2018-12-06T07:12:59.603Z,15.18
2018-12-06T07:15:27.876Z,13.68
2018-12-06T07:17:56.052Z,15.28
2018-12-06T07:20:24.229Z,15.85
2018-12-06T07:22:52.398Z,15.75
2018-12-06T07:25:20.595Z,16.93
2018-12-06T07:27:48.851Z,19.37
2018-12-06T07:30:16.991Z,18.10
2018-12-06T07:32:45.169Z,20.32
2018-12-06T07:35:13.421Z,20.55
2018-12-06T07:37:41.545Z,19.77
2018-12-06T07:40:09.818Z,18.95
2018-12-06T07:42:37.999Z,19.50
2018-12-06T07:45:06.322Z,18.77
2018-12-06T07:47:34.548Z,18.35
2018-12-06T07:50:03.008Z,20.32
2018-12-06T07:52:31.110Z,20.43
2018-12-06T07:54:59.270Z,19.75
2018-12-06T07:57:28.863Z,19.00
2018-12-06T07:59:57.158Z,21.75
2018-12-06T08:02:25.318Z,20.00
2018-12-06T08:04:53.540Z,21.73
2018-12-06T08:07:21.773Z,22.55
2018-12-06T08:09:49.946Z,22.35
2018-12-06T08:12:18.164Z,24.18
2018-12-06T08:15:26.247Z,24.50
2018-12-06T08:17:54.376Z,25.00
2018-12-06T08:20:22.627Z,25.23
2018-12-06T08:22:50.859Z,28.15
2018-12-06T08:25:19.050Z,25.17
2018-12-06T08:27:47.182Z,25.88
2018-12-06T08:30:15.299Z,27.80
2018-12-06T08:32:43.519Z,27.30
2018-12-06T08:35:11.735Z,25.52
2018-12-06T08:37:40.010Z,25.23
2018-12-06T08:40:08.662Z,26.23
2018-12-06T08:42:36.858Z,26.93
2018-12-06T08:45:05.218Z,28.27
2018-12-06T08:47:33.419Z,26.07
2018-12-06T08:50:01.898Z,27.13
2018-12-06T08:55:40.258Z,26.82
2018-12-06T08:58:18.050Z,26.70
2018-12-06T09:00:52.122Z,26.07
2018-12-06T09:03:26.518Z,25.85
2018-12-06T09:06:02.837Z,26.07
2018-12-06T09:08:39.510Z,29.40
2018-12-06T09:11:15.868Z,27.30
2018-12-06T09:13:50.465Z,27.20
2018-12-06T09:16:18.726Z,26.95
2018-12-06T09:18:46.953Z,24.35
2018-12-06T09:21:15.212Z,25.25
2018-12-06T09:23:43.390Z,24.50
2018-12-06T09:26:11.644Z,27.42
2018-12-06T09:28:39.916Z,26.85
2018-12-06T09:31:08.235Z,26.02
2018-12-06T09:33:46.456Z,23.20
2018-12-06T09:36:14.779Z,27.02
2018-12-06T09:38:42.960Z,24.70
2018-12-06T09:41:11.249Z,27.48
2018-12-06T09:43:39.421Z,26.73
2018-12-06T09:46:07.668Z,26.40
2018-12-06T09:48:35.858Z,26.65
2018-12-06T09:51:04.337Z,24.92
2018-12-06T09:53:32.623Z,26.48
2018-12-06T09:56:01.042Z,26.25
2018-12-06T09:58:29.310Z,27.17
2018-12-06T10:00:57.536Z,23.52
2018-12-06T10:03:25.742Z,27.07
2018-12-06T10:05:53.971Z,25.70
2018-12-06T10:08:22.209Z,25.95
2018-12-06T10:10:50.493Z,26.87
2018-12-06T10:13:18.647Z,28.62
2018-12-06T10:15:46.936Z,28.32
2018-12-06T10:18:15.090Z,30.62
2018-12-06T10:20:43.333Z,25.32
2018-12-06T10:23:11.513Z,29.77
2018-12-06T10:25:39.755Z,27.95
2018-12-06T10:28:08.140Z,28.20
2018-12-06T10:30:36.525Z,26.77
2018-12-06T10:33:04.945Z,28.47
2018-12-06T10:35:33.283Z,29.57
2018-12-06T10:38:01.494Z,27.10
2018-12-06T10:40:29.998Z,28.42
2018-12-06T10:42:58.203Z,26.33
2018-12-06T10:45:26.805Z,26.37
2018-12-06T10:47:55.208Z,29.20
2018-12-06T10:50:23.522Z,28.25
2018-12-06T10:52:52.080Z,25.48
2018-12-06T10:55:20.406Z,28.73
2018-12-06T10:57:48.968Z,31.12
2018-12-06T11:00:22.869Z,30.68
2018-12-06T11:02:53.134Z,31.45
2018-12-06T11:05:21.303Z,33.02
2018-12-06T11:07:49.609Z,31.27
2018-12-06T11:10:18.357Z,32.08
2018-12-06T11:12:46.769Z,33.53
2018-12-06T11:15:15.058Z,33.35
2018-12-06T11:17:43.453Z,32.63
2018-12-06T11:20:11.716Z,34.38
2018-12-06T11:22:40.050Z,32.48
2018-12-06T11:25:08.487Z,32.03
2018-12-06T11:27:36.747Z,31.75
2018-12-06T11:30:06.053Z,34.13
2018-12-06T11:32:34.434Z,33.18
2018-12-06T11:35:02.872Z,34.10
2018-12-06T11:37:31.406Z,30.80
2018-12-06T11:39:59.675Z,31.62
2018-12-06T11:42:27.931Z,30.35
2018-12-06T11:44:56.082Z,29.95
2018-12-06T11:47:24.283Z,32.20
2018-12-06T11:49:53.498Z,32.55
2018-12-06T11:52:21.887Z,32.90
2018-12-06T11:54:50.469Z,32.33
2018-12-06T11:57:18.727Z,30.48
2018-12-06T11:59:47.531Z,32.13
2018-12-06T12:02:15.879Z,29.72
2018-12-06T12:04:44.203Z,32.30
2018-12-06T12:07:12.510Z,32.10
2018-12-06T12:09:40.980Z,29.80
2018-12-06T12:12:09.315Z,29.72
2018-12-06T12:14:38.443Z,32.80
2018-12-06T12:17:06.734Z,32.10
2018-12-06T12:19:35.233Z,34.43
2018-12-06T12:22:03.726Z,34.23
2018-12-06T12:24:32.078Z,34.15
2018-12-06T12:27:00.396Z,31.97
2018-12-06T12:29:28.658Z,33.70
2018-12-06T12:31:56.902Z,34.05
2018-12-06T12:34:25.532Z,33.38
2018-12-06T12:36:53.818Z,38.02
2018-12-06T12:39:22.078Z,33.73
2018-12-06T12:41:50.274Z,36.00
2018-12-06T12:44:18.644Z,35.45
2018-12-06T12:46:46.903Z,36.10
2018-12-06T12:49:15.134Z,35.55
2018-12-06T12:51:43.403Z,37.70
2018-12-06T12:54:11.703Z,35.98
2018-12-06T12:56:40.015Z,33.78
2018-12-06T12:59:08.407Z,37.28
2018-12-06T13:01:36.858Z,38.80
2018-12-06T13:04:05.206Z,38.33
2018-12-06T13:06:33.615Z,37.88
2018-12-06T13:09:02.467Z,37.40
2018-12-06T13:11:30.793Z,38.73
2018-12-06T13:13:59.067Z,38.98
2018-12-06T13:16:27.393Z,40.25
2018-12-06T13:18:55.664Z,39.60
2018-12-06T13:21:24.369Z,38.45
2018-12-06T13:23:52.595Z,40.88
2018-12-06T13:26:21.228Z,41.85
2018-12-06T13:28:49.414Z,41.77
2018-12-06T13:31:17.690Z,42.30
2018-12-06T13:33:45.980Z,40.63
2018-12-06T13:36:14.326Z,39.67
2018-12-06T13:38:42.500Z,40.28
2018-12-06T13:41:10.647Z,42.05
2018-12-06T13:43:38.845Z,40.48
2018-12-06T13:46:07.209Z,40.10
2018-12-06T13:48:36.594Z,40.52
2018-12-06T13:51:04.838Z,41.37
2018-12-06T13:53:33.187Z,39.48
2018-12-06T13:56:01.390Z,37.70
2018-12-06T13:58:29.778Z,39.27
2018-12-06T14:00:58.132Z,39.75
2018-12-06T14:03:26.487Z,37.67
2018-12-06T14:05:54.691Z,39.38
2018-12-06T14:08:22.963Z,37.53
2018-12-06T14:10:51.174Z,38.00
2018-12-06T14:13:23.614Z,40.58
2018-12-06T14:15:49.770Z,39.20
2018-12-06T14:18:17.939Z,41.48
2018-12-06T14:20:46.048Z,41.00
2018-12-06T14:23:14.275Z,38.42
2018-12-06T14:25:42.463Z,39.98
2018-12-06T14:28:10.652Z,40.80
2018-12-06T14:30:38.824Z,39.83
2018-12-06T14:33:07.050Z,42.13
2018-12-06T14:35:35.769Z,43.35
2018-12-06T14:38:04.141Z,41.68
2018-12-06T14:40:32.474Z,42.08
2018-12-06T14:43:01.878Z,42.13
2018-12-06T14:45:30.535Z,43.45
2018-12-06T14:48:26.862Z,41.13
2018-12-06T14:53:51.403Z,42.75
2018-12-06T14:56:19.944Z,42.40
2018-12-06T14:58:48.240Z,44.40
2018-12-06T15:01:16.544Z,42.15
2018-12-06T15:03:47.380Z,43.58
2018-12-06T15:06:16.000Z,41.55
2018-12-06T15:08:52.062Z,39.25
2018-12-06T15:11:24.492Z,43.60
2018-12-06T15:14:00.657Z,41.10
2018-12-06T15:19:14.257Z,42.60
2018-12-06T15:21:54.046Z,38.25
2018-12-06T15:27:19.426Z,38.13
2018-12-06T15:29:47.966Z,39.75
2018-12-06T15:32:16.442Z,38.20
2018-12-06T15:34:44.918Z,39.35
2018-12-06T15:37:13.198Z,39.88
2018-12-06T15:39:41.757Z,40.40
2018-12-06T15:42:11.481Z,37.58
2018-12-06T15:44:43.093Z,40.63
2018-12-06T15:47:12.837Z,38.85
2018-12-06T15:49:47.801Z,39.45
2018-12-06T15:55:12.684Z,38.08
2018-12-06T15:57:41.093Z,35.60
2018-12-06T16:00:16.150Z,35.78
2018-12-06T16:02:44.889Z,34.50
2018-12-06T16:05:13.311Z,33.45
2018-12-06T16:07:41.748Z,35.92
2018-12-06T16:10:10.853Z,35.33
2018-12-06T16:15:38.713Z,34.15
2018-12-06T16:18:07.184Z,34.27
2018-12-06T16:20:35.501Z,32.98
2018-12-06T16:23:04.595Z,33.45
2018-12-06T16:28:29.330Z,30.92
2018-12-06T16:31:03.819Z,33.53
2018-12-06T16:33:38.216Z,31.33
2018-12-06T16:36:24.701Z,32.30
2018-12-06T16:39:11.409Z,34.73
2018-12-06T16:41:57.850Z,35.75
2018-12-06T16:44:44.337Z,32.00
2018-12-06T16:47:16.158Z,33.95
2018-12-06T16:50:03.651Z,30.80
2018-12-06T16:52:38.225Z,31.57
2018-12-06T16:55:10.485Z,32.65
2018-12-06T16:57:39.395Z,32.08
2018-12-06T17:00:14.758Z,31.77
2018-12-06T17:02:49.245Z,32.38
2018-12-06T17:05:44.452Z,33.50
2018-12-06T17:08:18.553Z,29.42
2018-12-06T17:10:48.504Z,33.73
2018-12-06T17:13:19.849Z,32.90
2018-12-06T17:15:55.248Z,31.35
2018-12-06T17:18:29.158Z,32.65
2018-12-06T17:21:00.665Z,29.45
2018-12-06T17:23:41.210Z,31.40
2018-12-06T17:26:15.287Z,32.38
2018-12-06T17:29:03.564Z,30.90
2018-12-06T17:31:35.376Z,32.05
2018-12-06T17:34:09.565Z,30.60
2018-12-06T17:36:37.887Z,26.57
2018-12-06T17:39:07.947Z,28.98
2018-12-06T17:41:37.557Z,28.98
2018-12-06T17:44:05.842Z,26.68
2018-12-06T17:46:34.199Z,29.35
2018-12-06T17:49:02.460Z,26.65
2018-12-06T17:51:30.679Z,26.10
2018-12-06T17:53:58.915Z,28.23
2018-12-06T17:56:27.191Z,28.67
2018-12-06T17:58:55.443Z,29.85
2018-12-06T18:01:23.802Z,27.17
2018-12-06T18:03:52.049Z,26.55
2018-12-06T18:06:20.270Z,27.10
2018-12-06T18:08:48.455Z,27.80
2018-12-06T18:11:18.017Z,30.05
2018-12-06T18:13:46.517Z,29.45
2018-12-06T18:16:34.459Z,29.20
2018-12-06T18:19:19.880Z,31.90
2018-12-06T18:21:49.604Z,29.50
2018-12-06T18:24:24.137Z,32.58
2018-12-06T18:27:13.310Z,30.75
2018-12-06T18:29:43.765Z,31.65
2018-12-06T18:32:15.771Z,33.42
2018-12-06T18:40:40.019Z,36.20
2018-12-06T18:43:14.342Z,34.18
2018-12-06T18:48:41.631Z,35.00
2018-12-06T18:51:28.906Z,36.80
2018-12-06T18:54:07.223Z,39.27
2018-12-06T18:56:40.376Z,38.90
2018-12-06T18:59:14.244Z,38.08
2018-12-06T19:07:37.804Z,40.73
2018-12-06T19:10:06.306Z,41.50
2018-12-06T19:12:34.523Z,43.28
2018-12-06T19:15:03.234Z,44.08
2018-12-06T19:17:35.142Z,43.20
2018-12-06T19:20:03.656Z,44.00
2018-12-06T19:22:31.966Z,44.30
2018-12-06T19:25:01.094Z,42.13
2018-12-06T19:27:29.326Z,43.50
2018-12-06T19:29:57.747Z,45.33
2018-12-06T19:32:27.075Z,42.03
2018-12-06T19:34:56.617Z,43.80
2018-12-06T19:37:24.901Z,43.25
2018-12-06T19:39:53.283Z,44.63
2018-12-06T19:42:21.561Z,45.12
2018-12-06T19:44:49.791Z,45.90
2018-12-06T19:47:17.982Z,43.55
2018-12-06T19:49:46.209Z,45.20
2018-12-06T19:52:22.742Z,44.35
2018-12-06T19:54:50.989Z,42.70
2018-12-06T20:00:16.936Z,39.67
2018-12-06T20:02:47.015Z,41.23
2018-12-06T20:05:19.424Z,36.20
2018-12-06T20:07:49.152Z,36.17
2018-12-06T20:13:03.279Z,35.50
2018-12-06T20:15:35.466Z,36.42
2018-12-06T20:18:14.721Z,35.00
2018-12-06T20:20:48.670Z,34.70
2018-12-06T20:23:16.868Z,36.95
2018-12-06T20:26:01.716Z,36.30
2018-12-06T20:28:30.065Z,38.25
2018-12-06T20:30:58.418Z,40.10
2018-12-06T20:33:26.666Z,37.93
2018-12-06T20:35:54.874Z,37.83
2018-12-06T20:38:23.137Z,40.20
2018-12-06T20:40:51.537Z,39.53
2018-12-06T20:43:25.647Z,38.30
2018-12-06T20:46:05.114Z,39.40
2018-12-06T20:48:34.722Z,38.20
2018-12-06T20:51:23.795Z,37.20
2018-12-06T20:56:49.055Z,37.65
2018-12-06T20:59:18.568Z,36.60
2018-12-06T21:01:49.049Z,38.75
2018-12-06T21:04:17.264Z,41.20
2018-12-06T21:06:45.930Z,39.45
2018-12-06T21:09:16.353Z,39.25
2018-12-06T21:11:53.246Z,41.60
2018-12-06T21:14:22.272Z,36.42
2018-12-06T21:16:51.083Z,40.65
2018-12-06T21:19:19.511Z,39.88
2018-12-06T21:21:47.991Z,38.35
2018-12-06T21:24:16.930Z,36.33
2018-12-06T21:26:45.199Z,38.60
2018-12-06T21:29:19.588Z,39.50
2018-12-06T21:34:44.836Z,37.53
2018-12-06T21:40:09.609Z,37.48
2018-12-06T21:42:38.389Z,40.45
2018-12-06T21:45:25.112Z,41.13
2018-12-06T21:47:56.767Z,39.30
2018-12-06T21:50:31.903Z,39.10
2018-12-06T21:53:05.911Z,42.50
2018-12-06T21:55:34.564Z,42.95
2018-12-06T21:58:15.303Z,39.30
2018-12-06T22:03:40.476Z,41.95
2018-12-06T22:06:08.985Z,43.05
2018-12-06T22:08:37.428Z,40.05
2018-12-06T22:11:06.128Z,43.80
2018-12-06T22:13:40.299Z,42.45
2018-12-06T22:16:09.038Z,42.17
2018-12-06T22:18:37.437Z,41.70
2018-12-06T22:21:05.831Z,46.55
2018-12-06T22:23:34.391Z,43.05
2018-12-06T22:26:03.350Z,43.02
2018-12-06T22:28:34.270Z,41.73
2018-12-06T22:31:18.765Z,45.25
2018-12-06T22:33:52.409Z,40.58
2018-12-06T22:36:38.217Z,40.28
2018-12-06T22:39:10.671Z,37.93
2018-12-06T22:42:01.450Z,38.50
2018-12-06T22:44:45.653Z,36.98
2018-12-06T22:47:14.080Z,39.20
2018-12-06T22:49:42.356Z,38.60
2018-12-06T22:52:11.601Z,39.92
2018-12-06T22:54:53.449Z,37.13
2018-12-06T22:57:27.519Z,39.30
2018-12-06T23:00:02.205Z,36.60
2018-12-06T23:02:31.441Z,40.35
2018-12-06T23:05:22.142Z,42.13
2018-12-06T23:10:46.622Z,40.25
2018-12-06T23:13:15.082Z,40.05
2018-12-06T23:15:43.540Z,42.75
2018-12-06T23:18:12.510Z,40.78
2018-12-06T23:20:40.829Z,40.50
2018-12-06T23:23:09.153Z,41.20
2018-12-06T23:25:37.441Z,40.08
2018-12-06T23:28:06.050Z,42.00
2018-12-06T23:30:40.851Z,38.55
2018-12-06T23:33:21.801Z,40.58
2018-12-06T23:35:50.269Z,40.98
2018-12-06T23:38:18.505Z,41.28
2018-12-06T23:40:46.806Z,38.23
2018-12-06T23:43:15.031Z,40.63
2018-12-06T23:45:43.410Z,40.48
2018-12-06T23:48:11.637Z,38.58
2018-12-06T23:50:39.956Z,37.15
2018-12-06T23:53:08.154Z,38.45
2018-12-06T23:55:36.405Z,38.58
2018-12-06T23:58:04.678Z,36.73
